createdAt,value
2023-03-18T00:00:52.244Z,11.80
2023-03-18T00:03:20.777Z,11.84
2023-03-18T00:05:50.592Z,11.77
2023-03-18T00:08:19.548Z,11.84
2023-03-18T00:10:52.057Z,11.79
2023-03-18T00:13:20.636Z,11.78
2023-03-18T00:15:51.958Z,11.78
2023-03-18T00:18:21.264Z,11.75
2023-03-18T00:20:50.916Z,11.71
2023-03-18T00:23:19.189Z,11.67
2023-03-18T00:25:49.939Z,11.57
2023-03-18T00:28:18.980Z,11.59
2023-03-18T00:30:51.569Z,11.54
2023-03-18T00:33:21.500Z,11.60
2023-03-18T00:35:51.942Z,11.66
2023-03-18T00:38:21.588Z,11.74
2023-03-18T00:41:01.394Z,11.70
2023-03-18T00:43:35.934Z,11.68
2023-03-18T00:46:05.520Z,11.61
2023-03-18T00:48:34.241Z,11.62
2023-03-18T00:51:04.261Z,11.60
2023-03-18T00:53:32.720Z,11.60
2023-03-18T00:56:01.665Z,11.62
2023-03-18T00:58:30.080Z,11.52
2023-03-18T01:00:58.844Z,11.51
2023-03-18T01:03:27.400Z,11.61
2023-03-18T01:05:56.311Z,11.60
2023-03-18T01:08:27.056Z,11.63
2023-03-18T01:10:55.533Z,11.58
2023-03-18T01:13:25.794Z,11.38
2023-03-18T01:15:56.121Z,11.30
2023-03-18T01:18:24.963Z,11.35
2023-03-18T01:20:55.806Z,11.33
2023-03-18T01:23:26.172Z,11.31
2023-03-18T01:25:55.850Z,11.21
2023-03-18T01:28:24.830Z,11.09
2023-03-18T01:30:54.080Z,11.06
2023-03-18T01:33:24.078Z,11.09
2023-03-18T01:35:55.808Z,11.08
2023-03-18T01:38:27.417Z,11.13
2023-03-18T01:40:57.164Z,11.11
2023-03-18T01:43:28.033Z,11.17
2023-03-18T01:45:59.464Z,11.21
2023-03-18T01:48:33.379Z,11.26
2023-03-18T01:51:08.657Z,11.24
2023-03-18T01:53:43.594Z,11.18
2023-03-18T01:56:13.372Z,11.23
2023-03-18T01:58:47.758Z,11.21
2023-03-18T02:01:22.776Z,11.06
2023-03-18T02:03:55.183Z,11.06
2023-03-18T02:06:38.311Z,11.00
2023-03-18T02:09:13.228Z,11.19
2023-03-18T02:11:46.163Z,11.31
2023-03-18T02:14:16.614Z,11.24
2023-03-18T02:16:49.964Z,11.25
2023-03-18T02:19:42.068Z,11.32
2023-03-18T02:22:19.598Z,11.36
2023-03-18T02:24:56.311Z,11.49
2023-03-18T02:27:28.989Z,11.51
2023-03-18T02:30:01.535Z,11.43
2023-03-18T02:32:32.401Z,11.49
2023-03-18T02:35:04.877Z,11.42
2023-03-18T02:37:33.801Z,11.50
2023-03-18T02:40:14.394Z,11.52
2023-03-18T02:42:44.917Z,11.57
2023-03-18T02:45:33.186Z,11.51
2023-03-18T02:48:06.065Z,11.52
2023-03-18T02:50:38.396Z,11.49
2023-03-18T02:53:07.850Z,11.44
2023-03-18T02:55:36.190Z,11.45
2023-03-18T02:58:05.977Z,11.40
2023-03-18T03:00:34.315Z,11.37
2023-03-18T03:03:03.916Z,11.22
2023-03-18T03:05:35.016Z,11.11
2023-03-18T03:08:03.499Z,11.07
2023-03-18T03:10:32.978Z,10.99
2023-03-18T03:13:04.201Z,10.92
2023-03-18T03:15:34.108Z,10.89
2023-03-18T03:18:02.464Z,10.67
2023-03-18T03:20:34.749Z,10.64
2023-03-18T03:23:04.140Z,10.52
2023-03-18T03:25:32.911Z,10.55
2023-03-18T03:28:01.772Z,10.42
2023-03-18T03:30:31.960Z,10.30
2023-03-18T03:33:06.102Z,10.59
2023-03-18T03:35:35.510Z,10.63
2023-03-18T03:38:04.181Z,10.79
2023-03-18T03:40:34.252Z,10.80
2023-03-18T03:43:02.866Z,10.91
2023-03-18T03:45:37.069Z,10.79
2023-03-18T03:48:12.764Z,10.86
2023-03-18T03:50:41.882Z,10.78
2023-03-18T03:53:10.666Z,10.72
2023-03-18T03:55:39.233Z,10.69
2023-03-18T03:58:07.608Z,10.69
2023-03-18T04:00:36.232Z,10.61
2023-03-18T04:03:05.214Z,10.48
2023-03-18T04:05:34.901Z,10.53
2023-03-18T04:08:03.242Z,10.37
2023-03-18T04:10:32.085Z,10.33
2023-03-18T04:13:00.544Z,10.19
2023-03-18T04:15:28.868Z,10.24
2023-03-18T04:17:57.308Z,10.36
2023-03-18T04:20:26.261Z,10.45
2023-03-18T04:22:56.022Z,10.60
2023-03-18T04:25:24.714Z,10.64
2023-03-18T04:27:53.534Z,10.66
2023-03-18T04:30:23.572Z,10.69
2023-03-18T04:32:53.360Z,10.79
2023-03-18T04:35:23.475Z,10.90
2023-03-18T04:37:52.629Z,10.85
2023-03-18T04:40:24.897Z,10.91
2023-03-18T04:42:55.885Z,10.98
2023-03-18T04:45:24.982Z,10.95
2023-03-18T04:47:53.602Z,10.90
2023-03-18T04:50:23.712Z,10.93
2023-03-18T04:52:52.045Z,10.93
2023-03-18T04:55:22.162Z,11.01
2023-03-18T04:57:50.717Z,10.97
2023-03-18T05:00:22.246Z,11.01
2023-03-18T05:02:51.617Z,10.88
2023-03-18T05:05:21.050Z,10.87
2023-03-18T05:07:49.437Z,10.91
2023-03-18T05:10:18.834Z,10.87
2023-03-18T05:12:49.657Z,10.89
2023-03-18T05:15:18.488Z,10.91
2023-03-18T05:17:47.426Z,10.89
2023-03-18T05:20:16.268Z,10.80
2023-03-18T05:22:44.619Z,10.87
2023-03-18T05:25:12.914Z,10.90
2023-03-18T05:27:41.726Z,10.86
2023-03-18T05:30:12.898Z,10.88
2023-03-18T05:32:41.520Z,10.94
2023-03-18T05:35:11.670Z,10.90
2023-03-18T05:37:40.240Z,10.86
2023-03-18T05:40:11.653Z,10.84
2023-03-18T05:42:56.842Z,10.96
2023-03-18T05:45:27.446Z,10.97
2023-03-18T05:47:56.209Z,10.90
2023-03-18T05:50:29.907Z,10.91
2023-03-18T05:52:58.594Z,10.90
2023-03-18T05:55:28.172Z,10.94
2023-03-18T05:57:57.019Z,10.92
2023-03-18T06:00:28.693Z,10.90
2023-03-18T06:02:58.255Z,10.91
2023-03-18T06:05:35.991Z,10.95
2023-03-18T06:08:04.725Z,11.00
2023-03-18T06:10:33.422Z,11.10
2023-03-18T06:13:01.941Z,11.21
2023-03-18T06:15:32.284Z,11.20
2023-03-18T06:18:00.874Z,11.24
2023-03-18T06:20:29.581Z,11.38
2023-03-18T06:22:58.171Z,11.43
2023-03-18T06:25:26.752Z,11.46
2023-03-18T06:27:55.162Z,11.54
2023-03-18T06:30:23.443Z,11.46
2023-03-18T06:32:53.697Z,11.42
2023-03-18T06:35:28.923Z,11.39
2023-03-18T06:37:57.489Z,11.35
2023-03-18T06:40:25.858Z,11.35
2023-03-18T06:42:54.591Z,11.37
2023-03-18T06:45:23.337Z,11.42
2023-03-18T06:47:53.614Z,11.45
2023-03-18T06:50:22.366Z,11.47
2023-03-18T06:52:50.917Z,11.46
2023-03-18T06:55:19.536Z,11.46
2023-03-18T06:57:48.167Z,11.57
2023-03-18T07:00:18.243Z,11.61
2023-03-18T07:02:46.732Z,11.66
2023-03-18T07:05:17.116Z,11.59
2023-03-18T07:07:46.173Z,11.74
2023-03-18T07:10:20.263Z,11.85
2023-03-18T07:12:50.221Z,12.10
2023-03-18T07:15:21.014Z,12.28
2023-03-18T07:17:49.930Z,12.82
2023-03-18T07:20:20.633Z,13.00
2023-03-18T07:22:49.285Z,13.06
2023-03-18T07:25:18.103Z,13.91
2023-03-18T07:27:46.814Z,13.75
2023-03-18T07:30:16.148Z,14.66
2023-03-18T07:32:46.055Z,14.49
2023-03-18T07:35:14.923Z,14.20
2023-03-18T07:37:44.886Z,14.03
2023-03-18T07:40:14.067Z,13.26
2023-03-18T07:42:42.426Z,13.28
2023-03-18T07:45:11.568Z,13.72
2023-03-18T07:47:39.964Z,15.40
2023-03-18T07:50:09.532Z,17.58
2023-03-18T07:52:38.420Z,19.02
2023-03-18T07:55:10.075Z,20.14
2023-03-18T07:57:40.579Z,20.36
2023-03-18T08:00:12.343Z,20.81
2023-03-18T08:02:41.315Z,19.96
2023-03-18T08:05:10.959Z,19.76
2023-03-18T08:07:39.483Z,20.62
2023-03-18T08:10:11.301Z,21.47
2023-03-18T08:12:52.140Z,21.56
2023-03-18T08:15:22.486Z,19.52
2023-03-18T08:17:51.064Z,19.21
2023-03-18T08:20:20.023Z,17.79
2023-03-18T08:22:48.470Z,18.14
2023-03-18T08:25:18.453Z,19.03
2023-03-18T08:27:46.855Z,20.17
2023-03-18T08:30:16.414Z,20.83
2023-03-18T08:32:44.917Z,22.22
2023-03-18T08:35:14.005Z,22.00
2023-03-18T08:37:42.516Z,21.85
2023-03-18T08:40:12.292Z,22.44
2023-03-18T08:42:41.977Z,20.67
2023-03-18T08:45:11.225Z,20.45
2023-03-18T08:47:40.015Z,21.73
2023-03-18T08:50:09.927Z,22.34
2023-03-18T08:52:39.746Z,22.35
2023-03-18T08:55:09.513Z,22.94
2023-03-18T08:57:38.990Z,24.38
2023-03-18T09:00:10.994Z,23.97
2023-03-18T09:02:39.485Z,23.29
2023-03-18T09:05:08.555Z,22.98
2023-03-18T09:07:37.042Z,20.72
2023-03-18T09:10:06.171Z,20.69
2023-03-18T09:12:34.462Z,22.93
2023-03-18T09:15:03.099Z,22.22
2023-03-18T09:17:51.003Z,21.07
2023-03-18T09:20:21.110Z,19.54
2023-03-18T09:22:51.934Z,18.62
2023-03-18T09:25:20.714Z,16.90
2023-03-18T09:27:49.081Z,16.29
2023-03-18T09:30:17.505Z,16.38
2023-03-18T09:32:47.241Z,18.32
2023-03-18T09:35:16.650Z,17.88
2023-03-18T09:37:45.084Z,18.01
2023-03-18T09:40:20.919Z,16.72
2023-03-18T09:43:02.556Z,17.66
2023-03-18T09:45:36.866Z,18.80
2023-03-18T09:48:36.296Z,20.57
2023-03-18T09:51:12.090Z,19.37
2023-03-18T09:53:48.246Z,18.48
2023-03-18T09:56:22.001Z,17.40
2023-03-18T09:58:55.096Z,16.81
2023-03-18T10:01:27.320Z,15.93
2023-03-18T10:04:03.760Z,17.57
2023-03-18T10:06:32.760Z,18.12
2023-03-18T10:09:10.708Z,21.03
2023-03-18T10:11:43.796Z,21.59
2023-03-18T10:14:21.805Z,24.35
2023-03-18T10:16:59.561Z,26.77
2023-03-18T10:19:29.907Z,27.93
2023-03-18T10:22:14.502Z,26.96
2023-03-18T10:24:51.636Z,24.52
2023-03-18T10:27:25.648Z,21.17
2023-03-18T10:30:02.910Z,22.70
2023-03-18T10:32:49.644Z,24.32
2023-03-18T10:35:31.122Z,27.10
2023-03-18T10:38:04.460Z,27.59
2023-03-18T10:40:37.146Z,23.63
2023-03-18T10:43:15.064Z,23.32
2023-03-18T10:45:45.927Z,23.18
2023-03-18T10:48:20.160Z,22.20
2023-03-18T10:51:07.092Z,21.82
2023-03-18T10:53:43.366Z,25.88
2023-03-18T10:56:13.766Z,27.50
2023-03-18T10:58:43.559Z,29.54
2023-03-18T11:01:17.555Z,29.70
2023-03-18T11:03:52.784Z,29.53
2023-03-18T11:06:26.254Z,29.70
2023-03-18T11:09:04.731Z,29.27
2023-03-18T11:11:34.795Z,27.96
2023-03-18T11:14:04.945Z,28.27
2023-03-18T11:16:40.392Z,28.65
2023-03-18T11:19:27.853Z,31.04
2023-03-18T11:22:16.533Z,30.40
2023-03-18T11:24:45.060Z,29.64
2023-03-18T11:27:29.647Z,27.92
2023-03-18T11:30:00.934Z,27.17
2023-03-18T11:32:31.283Z,25.20
2023-03-18T11:35:05.697Z,23.56
2023-03-18T11:37:37.756Z,26.58
2023-03-18T11:40:23.618Z,32.10
2023-03-18T11:42:57.739Z,34.29
2023-03-18T11:45:42.193Z,32.36
2023-03-18T11:48:19.043Z,27.74
2023-03-18T11:51:02.255Z,26.58
2023-03-18T11:53:48.351Z,28.57
2023-03-18T11:56:27.863Z,30.56
2023-03-18T11:59:14.498Z,28.99
2023-03-18T12:01:54.460Z,25.37
2023-03-18T12:04:46.458Z,23.84
2023-03-18T12:07:38.260Z,22.02
2023-03-18T12:10:21.232Z,20.80
2023-03-18T12:13:05.606Z,20.91
2023-03-18T12:15:44.919Z,23.21
2023-03-18T12:18:24.756Z,25.27
2023-03-18T12:20:55.572Z,27.90
2023-03-18T12:23:53.013Z,25.86
2023-03-18T12:26:27.544Z,24.40
2023-03-18T12:29:39.097Z,21.28
2023-03-18T12:32:27.886Z,20.20
2023-03-18T12:35:14.193Z,20.86
2023-03-18T12:37:59.634Z,22.54
2023-03-18T12:40:46.608Z,24.70
2023-03-18T12:43:43.014Z,23.06
2023-03-18T12:46:34.112Z,21.71
2023-03-18T12:49:13.146Z,22.11
2023-03-18T12:51:46.726Z,22.48
2023-03-18T12:54:25.428Z,21.72
2023-03-18T12:57:01.029Z,21.35
2023-03-18T12:59:36.320Z,20.70
2023-03-18T13:02:43.920Z,20.79
2023-03-18T13:05:29.237Z,21.05
2023-03-18T13:08:21.456Z,24.20
2023-03-18T13:10:58.510Z,25.63
2023-03-18T13:13:29.791Z,25.06
2023-03-18T13:16:03.600Z,25.91
2023-03-18T13:18:38.159Z,25.33
2023-03-18T13:21:08.482Z,24.51
2023-03-18T13:23:53.033Z,22.40
2023-03-18T13:26:33.396Z,22.69
2023-03-18T13:29:16.669Z,25.77
2023-03-18T13:31:54.333Z,26.66
2023-03-18T13:34:56.299Z,24.77
2023-03-18T13:37:50.426Z,23.83
2023-03-18T13:40:34.529Z,22.42
2023-03-18T13:43:04.442Z,20.67
2023-03-18T13:45:38.565Z,20.39
2023-03-18T13:48:16.318Z,21.13
2023-03-18T13:50:48.676Z,20.88
2023-03-18T13:53:26.216Z,21.03
2023-03-18T13:56:03.791Z,21.60
2023-03-18T13:58:35.752Z,22.95
2023-03-18T14:01:33.462Z,25.25
2023-03-18T14:04:32.840Z,25.55
2023-03-18T14:07:19.620Z,24.34
2023-03-18T14:09:54.837Z,23.38
2023-03-18T14:12:42.905Z,21.30
2023-03-18T14:15:44.336Z,20.57
2023-03-18T14:18:27.228Z,20.24
2023-03-18T14:21:11.972Z,21.28
2023-03-18T14:23:44.151Z,20.84
2023-03-18T14:26:21.651Z,20.23
2023-03-18T14:28:54.861Z,18.75
2023-03-18T14:31:33.500Z,18.35
2023-03-18T14:34:28.160Z,17.96
2023-03-18T14:37:19.235Z,17.78
2023-03-18T14:39:52.919Z,17.55
2023-03-18T14:42:31.454Z,17.34
2023-03-18T14:45:04.599Z,17.34
2023-03-18T14:47:41.133Z,17.20
2023-03-18T14:50:18.178Z,16.95
2023-03-18T14:52:54.383Z,16.68
2023-03-18T14:55:26.996Z,15.95
2023-03-18T14:57:56.600Z,15.40
2023-03-18T15:00:26.142Z,15.07
2023-03-18T15:03:01.712Z,14.73
2023-03-18T15:05:35.752Z,14.63
2023-03-18T15:08:09.927Z,14.36
2023-03-18T15:10:38.754Z,13.95
2023-03-18T15:13:09.857Z,13.19
2023-03-18T15:15:38.826Z,12.73
2023-03-18T15:18:18.520Z,12.74
2023-03-18T15:20:51.285Z,13.33
2023-03-18T15:23:29.049Z,14.09
2023-03-18T15:25:57.705Z,14.48
2023-03-18T15:28:29.507Z,14.27
2023-03-18T15:30:59.653Z,14.03
2023-03-18T15:33:31.409Z,13.36
2023-03-18T15:36:05.823Z,13.11
2023-03-18T15:38:35.629Z,12.90
2023-03-18T15:41:07.373Z,12.81
2023-03-18T15:43:41.112Z,12.96
2023-03-18T15:46:17.479Z,12.89
2023-03-18T15:48:54.507Z,12.74
2023-03-18T15:51:29.850Z,12.66
2023-03-18T15:54:06.840Z,12.73
2023-03-18T15:56:36.563Z,12.81
2023-03-18T15:59:08.930Z,12.94
2023-03-18T16:01:37.746Z,13.13
2023-03-18T16:04:08.439Z,13.11
2023-03-18T16:06:38.490Z,13.27
2023-03-18T16:09:20.472Z,13.31
2023-03-18T16:11:52.727Z,13.38
2023-03-18T16:14:23.627Z,13.41
2023-03-18T16:16:53.104Z,13.27
2023-03-18T16:19:28.077Z,13.04
2023-03-18T16:21:58.379Z,12.91
2023-03-18T16:24:28.379Z,12.72
2023-03-18T16:26:57.349Z,12.64
2023-03-18T16:29:28.888Z,12.59
2023-03-18T16:31:57.544Z,12.57
2023-03-18T16:34:26.158Z,12.56
2023-03-18T16:36:55.142Z,12.60
2023-03-18T16:39:25.490Z,12.58
2023-03-18T16:41:55.211Z,12.67
2023-03-18T16:44:24.312Z,12.72
2023-03-18T16:46:55.476Z,12.73
2023-03-18T16:49:25.449Z,12.68
2023-03-18T16:51:53.820Z,12.60
2023-03-18T16:54:24.141Z,12.50
2023-03-18T16:56:55.907Z,12.38
2023-03-18T16:59:25.187Z,12.37
2023-03-18T17:01:54.120Z,12.27
2023-03-18T17:04:26.725Z,12.21
2023-03-18T17:06:55.559Z,12.17
2023-03-18T17:09:24.872Z,12.08
2023-03-18T17:11:58.753Z,12.03
2023-03-18T17:14:33.791Z,11.95
2023-03-18T17:17:04.589Z,11.88
2023-03-18T17:19:32.905Z,11.84
2023-03-18T17:22:01.289Z,11.66
2023-03-18T17:24:29.905Z,11.59
2023-03-18T17:26:59.611Z,11.44
2023-03-18T17:29:31.324Z,11.35
2023-03-18T17:32:00.161Z,11.26
2023-03-18T17:34:29.123Z,11.16
2023-03-18T17:36:57.503Z,11.05
2023-03-18T17:39:26.385Z,10.98
2023-03-18T17:41:55.118Z,10.91
2023-03-18T17:44:29.748Z,10.90
2023-03-18T17:46:58.859Z,11.03
2023-03-18T17:49:28.689Z,10.89
2023-03-18T17:51:57.697Z,10.75
2023-03-18T17:54:27.087Z,10.67
2023-03-18T17:56:56.003Z,10.71
2023-03-18T17:59:26.116Z,10.69
2023-03-18T18:01:54.609Z,10.61
2023-03-18T18:04:26.124Z,10.48
2023-03-18T18:06:54.690Z,10.38
2023-03-18T18:09:23.311Z,10.29
2023-03-18T18:11:51.779Z,10.24
2023-03-18T18:14:23.564Z,10.23
2023-03-18T18:16:55.809Z,10.20
2023-03-18T18:19:24.531Z,10.17
2023-03-18T18:21:54.785Z,10.10
2023-03-18T18:24:26.942Z,10.07
2023-03-18T18:26:55.733Z,10.05
2023-03-18T18:29:26.316Z,10.00
2023-03-18T18:31:57.087Z,10.01
2023-03-18T18:34:25.594Z,9.94
2023-03-18T18:36:54.321Z,9.83
2023-03-18T18:39:22.845Z,9.79
2023-03-18T18:41:51.494Z,9.72
2023-03-18T18:44:20.153Z,9.70
2023-03-18T18:46:48.644Z,9.72
2023-03-18T18:49:22.406Z,9.60
2023-03-18T18:51:53.156Z,9.59
2023-03-18T18:54:21.865Z,9.55
2023-03-18T18:56:50.807Z,9.49
2023-03-18T18:59:24.374Z,9.53
2023-03-18T19:01:53.487Z,9.57
2023-03-18T19:04:24.154Z,9.50
2023-03-18T19:06:53.610Z,9.45
2023-03-18T19:09:25.018Z,9.43
2023-03-18T19:11:55.978Z,9.29
2023-03-18T19:14:26.634Z,9.22
2023-03-18T19:16:58.932Z,9.20
2023-03-18T19:19:32.103Z,9.16
2023-03-18T19:22:01.124Z,9.12
2023-03-18T19:24:31.081Z,9.13
2023-03-18T19:27:02.831Z,9.17
2023-03-18T19:29:33.122Z,9.13
2023-03-18T19:32:02.164Z,9.14
2023-03-18T19:34:33.888Z,9.11
2023-03-18T19:37:05.831Z,9.15
2023-03-18T19:39:34.799Z,9.13
2023-03-18T19:42:03.316Z,9.10
2023-03-18T19:44:32.558Z,9.04
2023-03-18T19:47:02.972Z,8.93
2023-03-18T19:49:35.843Z,8.97
2023-03-18T19:52:16.407Z,8.94
2023-03-18T19:54:45.508Z,8.86
2023-03-18T19:57:17.339Z,8.89
2023-03-18T19:59:48.545Z,8.80
2023-03-18T20:02:23.436Z,8.76
2023-03-18T20:04:56.366Z,8.71
2023-03-18T20:07:26.368Z,8.76
2023-03-18T20:09:55.929Z,8.77
2023-03-18T20:12:27.384Z,8.70
2023-03-18T20:14:56.611Z,8.69
2023-03-18T20:17:29.588Z,8.62
2023-03-18T20:20:00.499Z,8.57
2023-03-18T20:22:32.883Z,8.50
2023-03-18T20:25:02.304Z,8.42
2023-03-18T20:27:31.424Z,8.38
2023-03-18T20:29:59.907Z,8.43
2023-03-18T20:32:28.583Z,8.41
2023-03-18T20:34:57.165Z,8.47
2023-03-18T20:37:32.081Z,8.42
2023-03-18T20:40:01.142Z,8.37
2023-03-18T20:42:29.785Z,8.34
2023-03-18T20:45:18.361Z,8.30
2023-03-18T20:47:48.691Z,8.28
2023-03-18T20:50:19.877Z,8.35
2023-03-18T20:52:50.620Z,8.30
2023-03-18T20:55:25.353Z,8.28
2023-03-18T20:57:54.901Z,8.22
2023-03-18T21:00:26.968Z,8.17
2023-03-18T21:02:59.532Z,8.20
2023-03-18T21:05:28.169Z,8.20
2023-03-18T21:07:57.978Z,8.17
2023-03-18T21:10:28.197Z,8.15
2023-03-18T21:12:56.697Z,8.13
2023-03-18T21:15:28.102Z,8.14
2023-03-18T21:17:56.787Z,8.13
2023-03-18T21:20:28.796Z,8.12
2023-03-18T21:22:58.633Z,8.22
2023-03-18T21:25:28.711Z,8.13
2023-03-18T21:27:57.716Z,8.16
2023-03-18T21:30:26.155Z,8.09
2023-03-18T21:32:54.650Z,8.10
2023-03-18T21:35:24.889Z,8.08
2023-03-18T21:37:53.917Z,8.06
2023-03-18T21:40:26.141Z,8.02
2023-03-18T21:42:56.716Z,8.06
2023-03-18T21:45:25.446Z,8.06
2023-03-18T21:47:54.070Z,7.99
2023-03-18T21:50:25.057Z,8.02
2023-03-18T21:52:54.965Z,8.03
2023-03-18T21:55:24.900Z,8.02
2023-03-18T21:57:53.481Z,7.96
2023-03-18T22:00:22.422Z,7.88
2023-03-18T22:02:50.964Z,7.94
2023-03-18T22:05:21.872Z,7.87
2023-03-18T22:07:51.300Z,7.80
2023-03-18T22:10:23.038Z,7.78
2023-03-18T22:12:52.893Z,7.72
2023-03-18T22:15:39.989Z,7.68
2023-03-18T22:18:08.588Z,7.65
2023-03-18T22:20:38.308Z,7.59
2023-03-18T22:23:16.162Z,7.62
2023-03-18T22:25:45.861Z,7.56
2023-03-18T22:28:15.867Z,7.54
2023-03-18T22:30:46.388Z,7.58
2023-03-18T22:33:21.066Z,7.53
2023-03-18T22:35:49.748Z,7.50
2023-03-18T22:38:19.960Z,7.54
2023-03-18T22:40:52.626Z,7.49
2023-03-18T22:43:32.098Z,7.44
2023-03-18T22:46:02.348Z,7.44
2023-03-18T22:48:30.933Z,7.53
2023-03-18T22:51:00.200Z,7.50
2023-03-18T22:53:31.518Z,7.50
2023-03-18T22:56:05.390Z,7.57
2023-03-18T22:58:35.365Z,7.56
2023-03-18T23:01:05.050Z,7.62
2023-03-18T23:03:35.291Z,7.63
2023-03-18T23:06:05.021Z,7.66
2023-03-18T23:08:33.370Z,7.66
2023-03-18T23:11:02.560Z,7.63
2023-03-18T23:13:34.809Z,7.70
2023-03-18T23:16:05.376Z,7.75
2023-03-18T23:18:34.149Z,7.81
2023-03-18T23:21:32.073Z,7.90
2023-03-18T23:24:00.923Z,7.94
2023-03-18T23:26:29.290Z,8.13
2023-03-18T23:28:57.684Z,8.07
2023-03-18T23:31:27.634Z,8.08
2023-03-18T23:33:56.077Z,8.08
2023-03-18T23:36:24.504Z,8.04
2023-03-18T23:38:53.065Z,8.04
2023-03-18T23:41:21.404Z,8.03
2023-03-18T23:43:49.885Z,8.02
2023-03-18T23:46:18.311Z,8.02
2023-03-18T23:48:48.285Z,7.96
2023-03-18T23:51:16.830Z,7.97
2023-03-18T23:53:45.685Z,8.09
2023-03-18T23:56:14.861Z,8.48
2023-03-18T23:58:43.293Z,8.73
